MUCU/SCU METAR and TAF weather

Enter ICAO airport designator
Station Type Date Time Source
MUCU METAR 2019/06/26 04:51 UTC NOAA

MUCU 260451Z 01003KT 320V040 8000 SCT020 25/22 Q1017


Station Type Date Time Source
MUCU Decoded METAR 2019/06/26 04:51 UTC NOAA

Santiago De Cuba, Oriente, Cuba (MUCU) 19-58N 075-51W 55M
Jun 26, 2019 - 12:51 AM EDT / 2019.06.26 0451 UTC
Wind: from the N (010 degrees) at 3 MPH (3 KT) (direction variable):0
Visibility: 4 mile(s):0
Sky conditions: partly cloudy
Temperature: 77 F (25 C)
Dew Point: 71 F (22 C)
Relative Humidity: 83%
Pressure (altimeter): 30.03 in. Hg (1017 hPa)
ob: MUCU 260451Z 01003KT 320V040 8000 SCT020 25/22 Q1017
cycle: 5

Station Type Date Time Source
MUCU TAF 2019/06/26 06:03 UTC NOAA

TAF MUCU 260500Z 2606/2706 VRB03KT 9000 FEW020
BECMG 2615/2617 17010KT

Example: see airport list